Terminal Aerodrome Forecast
Issued by NWS Portland, OR

Home | Current Version | Previous Version | Text Only | Print | Product List | Glossary On
Versions: 1 2 3 4 5 6 7 8 9 10 11 12 13 14
000
FTUS46 KPQR 300524
TAFTTD
TAF
KTTD 300524Z 3006/0106 VRB02KT P6SM OVC060
     FM301200 VRB02KT P6SM BKN025 OVC050
     FM302000 28004KT P6SM SCT050=

USA.gov is the U.S. government's official web portal to all federal, state and local government web resources and services.